Airfield :







YOU CAN JOIN US ON...

 
LOGIN :

Register | Disclaimer

   EN    FR    IT 

 









Legend :    VFR   Marginal VFR   IFR   Intensive IFR   Very Intensive IFR
Visi :
Ceiling :
>= 8 km
>= 3000ft
5 to 8 km
1000 to 3000 ft
1500m to 5 km
500 to 1000 ft
800 to 1500m
200 to 500 ft
< 800m
< 200 ft
Symbols :   Thunderstorms  Fog  Heavy snow  Heavy precipitations  Wind > 20 kt






- Airport Elevation : 199 ft
- IATA code : YRQ


CYRQ - Trois-Rivières

CURRENT METAR :
  • 180100Z AUTO 03004KT 9SM CLR M11/M14 A3027 RMK SLP256

EXPIRED METARs :
  • 180000Z AUTO 03003KT 9SM CLR M11/M14 A3029 RMK SLP263
  • 172300Z AUTO 02003KT 9SM CLR M10/M14 A3030 RMK SLP269

TAF TAF CYRQ
Valid from the 17 at 20:00 until the 18 at 08:00 UTC


171938Z 1720/1808 06005KT P6SM FEW190 RMK FCST BASED ON AUTO OBS. NXT FCST BY 180200Z



MET'MAP, your aeronautical weather chart ! - Copyright ORBIFLY December 2007 - Disclaimer

ORBIFLY MET'MAP TEAM :

Programming & Development : Alexandra Zaïnal
Concept & Development : Baudouin d'Aumeries
Co-Development & Prog : Marc-Olivier Méhu
Technical & hardware support : Manuel Goepfert

Contact : metmap@orbifly.com




SOURCES & CREDITS :

   NOAA